Time;durP1;ratioP1;P1;durP2;ratioP2;P2;SDS_P1;SDS_P2;PMS_P1;PMS_P2;Temp;Humidity;BMP_temperature;BMP_pressure;BME280_temperature;BME280_humidity;BME280_pressure;Samples;Min_cycle;Max_cycle;Signal;HPM_P1;HPM_P2
2022/11/15 00:00:55;;;;;;;68.85;42.45;;;7.40;99.90;;;;;;5081101;28;20905;-75
2022/11/15 00:03:24;;;;;;;69.97;41.88;;;7.40;99.90;;;;;;5101152;28;20073;-75
2022/11/15 00:05:50;;;;;;;43.53;16.77;;;7.40;99.90;;;;;;5085467;28;20035;-75
2022/11/15 00:08:16;;;;;;;32.33;14.80;;;7.30;99.90;;;;;;5084012;28;20048;-75
2022/11/15 00:10:42;;;;;;;68.90;45.15;;;7.20;99.90;;;;;;5102174;28;20066;-75
2022/11/15 00:13:10;;;;;;;66.10;43.47;;;7.20;99.90;;;;;;5083967;28;20063;-75
2022/11/15 00:15:38;;;;;;;65.57;41.60;;;7.30;99.90;;;;;;5086643;28;20047;-75
2022/11/15 00:18:05;;;;;;;40.85;20.00;;;7.30;99.90;;;;;;5101910;28;20057;-75
2022/11/15 00:20:33;;;;;;;56.83;38.80;;;7.20;99.90;;;;;;5084289;28;20086;-75
2022/11/15 00:22:59;;;;;;;26.27;13.32;;;7.20;99.90;;;;;;5083045;28;20052;-75
2022/11/15 00:25:25;;;;;;;32.33;14.95;;;7.20;99.90;;;;;;5086244;28;20054;-75
2022/11/15 00:27:54;;;;;;;34.25;13.68;;;7.10;99.90;;;;;;5102856;28;20382;-75
2022/11/15 00:30:20;;;;;;;29.27;14.43;;;7.20;99.90;;;;;;5084631;28;20100;-75
2022/11/15 00:32:46;;;;;;;59.85;36.15;;;7.00;99.90;;;;;;5085356;28;20150;-75
2022/11/15 00:35:11;;;;;;;65.45;39.20;;;7.10;99.90;;;;;;5084942;28;20540;-75
2022/11/15 00:37:37;;;;;;;31.50;13.15;;;7.10;99.90;;;;;;5082194;28;20044;-75
2022/11/15 00:40:03;;;;;;;27.85;11.75;;;7.10;99.90;;;;;;5089275;28;20067;-75
2022/11/15 00:42:29;;;;;;;58.50;39.58;;;7.10;99.90;;;;;;5087682;28;20044;-74
2022/11/15 00:44:54;;;;;;;25.63;12.68;;;7.10;99.90;;;;;;5070840;28;20043;-75
2022/11/15 00:47:20;;;;;;;60.13;38.33;;;7.20;99.90;;;;;;5079485;28;20488;-75
2022/11/15 00:49:45;;;;;;;28.63;12.55;;;7.10;99.90;;;;;;5084284;28;20050;-75
2022/11/15 00:52:11;;;;;;;65.10;41.42;;;7.20;99.90;;;;;;5104001;28;20504;-75
2022/11/15 00:54:37;;;;;;;62.53;40.35;;;7.20;99.90;;;;;;5084367;28;20047;-75
2022/11/15 00:57:03;;;;;;;36.22;14.68;;;7.30;99.90;;;;;;5081380;28;20047;-75
2022/11/15 00:59:29;;;;;;;63.38;37.85;;;7.30;99.90;;;;;;5079090;28;20046;-75
2022/11/15 01:01:55;;;;;;;63.83;39.30;;;7.30;99.90;;;;;;5080168;28;20044;-75
2022/11/15 01:04:22;;;;;;;64.38;39.25;;;7.30;99.90;;;;;;5080242;28;20051;-75
2022/11/15 01:06:47;;;;;;;59.28;36.45;;;7.40;99.90;;;;;;5082221;28;20833;-75
2022/11/15 01:09:13;;;;;;;63.13;38.90;;;7.50;99.90;;;;;;5080082;28;20035;-75
2022/11/15 01:11:39;;;;;;;28.80;14.88;;;7.40;99.90;;;;;;5082203;28;20036;-74
2022/11/15 01:14:05;;;;;;;30.70;12.68;;;7.40;99.90;;;;;;5084778;28;20042;-75
2022/11/15 01:16:32;;;;;;;50.05;14.68;;;7.40;99.90;;;;;;5085003;28;20067;-74
2022/11/15 01:18:58;;;;;;;62.30;37.10;;;7.40;99.90;;;;;;5083681;28;20047;-74
2022/11/15 01:21:24;;;;;;;65.47;35.72;;;7.40;99.90;;;;;;5082175;28;20110;-74
2022/11/15 01:23:54;;;;;;;65.25;35.47;;;7.50;99.90;;;;;;5078286;28;20509;-75
2022/11/15 01:26:24;;;;;;;55.55;34.05;;;7.50;99.90;;;;;;5080286;28;20060;-75
2022/11/15 01:28:50;;;;;;;43.25;15.73;;;7.50;99.90;;;;;;5080044;28;20059;-75
2022/11/15 01:31:18;;;;;;;59.58;35.47;;;7.60;99.90;;;;;;5079751;28;20052;-75
2022/11/15 01:33:45;;;;;;;61.30;37.28;;;7.60;99.90;;;;;;5081829;28;20044;-75
2022/11/15 01:36:13;;;;;;;67.30;37.42;;;7.60;99.90;;;;;;5079347;28;20493;-75
2022/11/15 01:38:39;;;;;;;65.90;38.55;;;7.60;99.90;;;;;;5085311;28;20059;-75
2022/11/15 01:41:05;;;;;;;72.18;38.88;;;7.60;99.90;;;;;;5089106;28;20413;-75
2022/11/15 01:43:36;;;;;;;61.75;37.17;;;7.60;99.90;;;;;;5079571;28;20052;-75
2022/11/15 01:46:37;;;;;;;61.85;36.08;;;7.60;99.90;;;;;;5081452;28;20056;-75
2022/11/15 01:49:11;;;;;;;34.83;14.00;;;7.70;99.90;;;;;;5061024;28;22179;-75
2022/11/15 01:51:37;;;;;;;57.42;36.88;;;7.60;99.90;;;;;;5082686;28;20040;-75
2022/11/15 01:54:12;;;;;;;62.20;35.92;;;7.60;99.90;;;;;;5081609;28;20056;-75
2022/11/15 01:56:52;;;;;;;35.00;20.35;;;7.70;99.90;;;;;;5086405;28;20393;-75
2022/11/15 01:59:18;;;;;;;65.93;38.38;;;7.70;99.90;;;;;;5080746;28;20040;-75
2022/11/15 02:01:47;;;;;;;60.97;36.90;;;7.70;99.90;;;;;;5079248;28;20048;-75
2022/11/15 02:04:21;;;;;;;;;;;7.70;99.90;;;;;;5082771;28;19924;-75
2022/11/15 02:06:48;;;;;;;58.72;36.05;;;7.70;99.90;;;;;;5081227;28;19973;-75
2022/11/15 02:09:14;;;;;;;56.92;33.42;;;7.70;99.90;;;;;;5084871;28;20157;-75
2022/11/15 02:11:41;;;;;;;62.47;37.35;;;7.70;99.90;;;;;;5084970;28;20112;-75
2022/11/15 02:14:08;;;;;;;62.85;37.80;;;7.70;99.90;;;;;;5061310;28;20071;-75
2022/11/15 02:17:03;;;;;;;63.85;38.15;;;7.80;99.90;;;;;;5082300;28;20044;-75
2022/11/15 02:19:31;;;;;;;62.65;35.03;;;7.80;99.90;;;;;;5082416;28;20060;-75
2022/11/15 02:22:10;;;;;;;;;;;7.80;99.90;;;;;;5078541;28;20056;-75
2022/11/15 02:24:56;;;;;;;66.28;38.13;;;7.70;99.90;;;;;;5084351;28;20008;-75
2022/11/15 02:27:54;;;;;;;35.75;15.73;;;7.80;99.90;;;;;;5081856;28;20048;-75
2022/11/15 02:30:40;;;;;;;60.80;36.10;;;7.80;99.90;;;;;;5080315;28;20052;-75
2022/11/15 02:33:37;;;;;;;63.53;35.90;;;7.80;99.90;;;;;;5082434;28;20071;-75
2022/11/15 02:36:18;;;;;;;65.40;35.53;;;7.80;99.90;;;;;;5078107;28;20051;-75
2022/11/15 02:39:18;;;;;;;71.18;37.78;;;7.80;99.90;;;;;;5079247;28;20426;-75
2022/11/15 02:43:56;;;;;;;74.18;38.97;;;7.90;99.90;;;;;;5083346;28;20153;-75
2022/11/15 02:44:58;;;;;;;66.25;35.70;;;7.90;99.90;;;;;;5082453;28;20052;-75
2022/11/15 02:47:27;;;;;;;35.67;16.17;;;7.90;99.90;;;;;;5082934;28;20047;-75
2022/11/15 02:49:56;;;;;;;78.20;40.47;;;7.90;99.90;;;;;;5083484;28;20052;-75
2022/11/15 02:52:25;;;;;;;80.25;39.40;;;7.90;99.90;;;;;;5081638;28;20054;-75
2022/11/15 02:54:59;;;;;;;81.65;38.72;;;7.90;99.90;;;;;;5083972;28;20054;-75
2022/11/15 02:58:06;;;;;;;78.15;43.03;;;7.90;99.90;;;;;;5080104;28;20261;-75
2022/11/15 03:00:40;;;;;;;79.50;43.15;;;8.00;99.90;;;;;;5060826;28;20048;-75
2022/11/15 03:03:45;;;;;;;73.78;40.20;;;7.90;99.90;;;;;;5078791;28;20035;-75
2022/11/15 03:06:37;;;;;;;82.60;42.78;;;8.00;99.90;;;;;;5064649;28;20056;-75
2022/11/15 03:09:19;;;;;;;82.00;42.80;;;8.00;99.90;;;;;;5081549;28;20047;-75
2022/11/15 03:11:52;;;;;;;87.57;40.78;;;8.00;99.90;;;;;;5085072;28;20048;-75
2022/11/15 03:14:30;;;;;;;84.00;41.97;;;8.00;99.90;;;;;;5080632;28;20048;-75
2022/11/15 03:17:22;;;;;;;86.75;42.83;;;8.00;99.90;;;;;;5079642;28;20044;-74
2022/11/15 03:19:52;;;;;;;33.47;17.38;;;8.00;99.90;;;;;;5067489;28;20390;-75
2022/11/15 03:22:22;;;;;;;80.30;42.40;;;8.00;99.90;;;;;;5086004;28;20134;-75
2022/11/15 03:24:54;;;;;;;94.70;45.95;;;8.00;99.90;;;;;;5080521;28;20056;-75
2022/11/15 03:27:23;;;;;;;72.60;41.50;;;8.00;99.90;;;;;;5082796;28;20044;-75
2022/11/15 03:29:58;;;;;;;88.88;40.80;;;8.00;99.90;;;;;;5083316;28;20079;-75
2022/11/15 03:32:28;;;;;;;98.43;45.17;;;8.10;99.90;;;;;;5080302;28;20127;-75
2022/11/15 03:35:02;;;;;;;84.95;44.20;;;8.10;99.90;;;;;;5060152;28;20052;-75
2022/11/15 03:37:40;;;;;;;77.78;41.60;;;8.10;99.90;;;;;;5078833;28;20234;-75
2022/11/15 03:40:06;;;;;;;98.63;43.78;;;8.10;99.90;;;;;;5080505;28;20489;-75
2022/11/15 03:43:10;;;;;;;82.10;44.92;;;8.10;99.90;;;;;;5083018;28;20365;-75
2022/11/15 03:45:53;;;;;;;75.40;43.28;;;8.20;99.90;;;;;;5038852;28;20140;-75
2022/11/15 03:48:24;;;;;;;104.13;49.97;;;8.20;99.90;;;;;;5054929;28;20083;-75
2022/11/15 03:50:50;;;;;;;90.03;46.75;;;8.20;99.90;;;;;;5082716;28;20126;-75
2022/11/15 03:53:15;;;;;;;101.80;48.42;;;8.20;99.90;;;;;;5082607;28;20557;-75
2022/11/15 03:55:43;;;;;;;100.65;50.22;;;8.20;99.90;;;;;;5080015;28;20040;-75
2022/11/15 03:58:09;;;;;;;105.18;47.28;;;8.30;99.90;;;;;;5079192;28;20467;-75
2022/11/15 04:00:34;;;;;;;96.72;49.95;;;8.20;99.90;;;;;;5079916;28;20048;-75
2022/11/15 04:03:00;;;;;;;44.38;19.38;;;8.20;99.90;;;;;;5081237;28;20058;-75
2022/11/15 04:05:26;;;;;;;95.07;48.25;;;8.20;99.90;;;;;;5079385;28;20140;-75
2022/11/15 04:07:51;;;;;;;95.22;47.88;;;8.20;99.90;;;;;;5079966;28;20044;-74
2022/11/15 04:10:17;;;;;;;84.47;45.13;;;8.30;99.90;;;;;;5078986;28;20547;-75
2022/11/15 04:12:47;;;;;;;46.60;20.23;;;8.30;99.90;;;;;;5078803;28;20404;-75
2022/11/15 04:15:18;;;;;;;40.92;16.95;;;8.20;99.90;;;;;;5082113;28;20071;-75
2022/11/15 04:17:51;;;;;;;100.28;49.65;;;8.20;99.90;;;;;;5080224;28;20051;-75
2022/11/15 04:26:16;;;;;;;105.75;49.00;;;8.20;99.90;;;;;;5081392;28;20124;-75
2022/11/15 04:31:26;;;;;;;88.22;48.38;;;8.20;99.90;;;;;;5080294;28;20558;-75
2022/11/15 04:33:52;;;;;;;93.00;48.03;;;8.20;99.90;;;;;;5098167;28;20479;-74
2022/11/15 04:39:03;;;;;;;99.18;49.33;;;8.20;99.90;;;;;;5098056;28;20088;-74
2022/11/15 04:41:29;;;;;;;94.75;48.53;;;8.20;99.90;;;;;;5084092;28;20497;-74
2022/11/15 04:43:54;;;;;;;105.45;53.03;;;8.20;99.90;;;;;;5083095;28;20515;-74
2022/11/15 04:46:20;;;;;;;97.40;52.30;;;8.30;99.90;;;;;;5102412;28;20051;-74
2022/11/15 04:48:46;;;;;;;49.05;20.80;;;8.20;99.90;;;;;;5081200;28;20047;-74
2022/11/15 04:51:12;;;;;;;41.80;18.80;;;8.20;99.90;;;;;;5097392;28;20047;-74
2022/11/15 04:53:37;;;;;;;61.33;21.17;;;8.20;99.90;;;;;;5096686;28;21082;-74
2022/11/15 04:56:03;;;;;;;106.45;54.53;;;8.20;99.90;;;;;;5079774;28;20556;-74
2022/11/15 04:58:29;;;;;;;101.18;51.90;;;8.20;99.90;;;;;;5097915;28;20143;-75
2022/11/15 05:00:55;;;;;;;108.82;54.25;;;8.30;99.90;;;;;;5103170;28;20055;-74
2022/11/15 05:06:06;;;;;;;128.00;60.17;;;8.30;99.90;;;;;;5082555;28;20862;-74
2022/11/15 05:08:32;;;;;;;147.82;65.63;;;8.40;99.90;;;;;;5089302;28;20097;-74
2022/11/15 05:10:58;;;;;;;130.20;66.05;;;8.40;99.90;;;;;;5104648;28;20148;-74
2022/11/15 05:13:24;;;;;;;58.30;25.77;;;8.40;99.90;;;;;;5099384;28;20818;-74
2022/11/15 05:15:49;;;;;;;135.63;64.60;;;8.40;99.90;;;;;;5106200;28;20044;-75
2022/11/15 05:18:15;;;;;;;129.27;65.68;;;8.40;99.90;;;;;;5085888;28;20051;-75
2022/11/15 05:20:41;;;;;;;146.40;70.20;;;8.50;99.90;;;;;;5103146;28;20055;-75
2022/11/15 05:23:06;;;;;;;54.83;21.50;;;8.50;99.90;;;;;;5105191;28;20084;-75
2022/11/15 05:25:32;;;;;;;141.50;69.18;;;8.50;99.90;;;;;;5102756;28;20507;-75
2022/11/15 05:27:58;;;;;;;137.15;62.40;;;8.50;99.90;;;;;;5088204;28;20070;-75
2022/11/15 05:30:23;;;;;;;143.73;64.57;;;8.50;99.90;;;;;;5104766;27;20039;-75
2022/11/15 05:32:53;;;;;;;151.77;67.35;;;8.60;99.90;;;;;;5091359;28;20134;-75
2022/11/15 05:35:28;;;;;;;64.57;23.90;;;8.60;99.90;;;;;;5102375;28;20125;-75
2022/11/15 05:37:53;;;;;;;137.30;67.75;;;8.60;99.90;;;;;;5089238;28;20063;-75
2022/11/15 05:40:19;;;;;;;149.68;68.63;;;8.60;99.90;;;;;;5086061;28;20079;-75
2022/11/15 05:42:46;;;;;;;142.10;69.13;;;8.70;99.90;;;;;;5087942;28;20050;-75
2022/11/15 05:45:12;;;;;;;152.60;71.15;;;8.70;99.90;;;;;;5087800;28;20780;-75
2022/11/15 05:47:39;;;;;;;141.15;70.53;;;8.70;99.90;;;;;;5088339;28;20053;-75
2022/11/15 05:50:05;;;;;;;156.93;73.80;;;8.80;99.90;;;;;;5087325;27;20112;-75
2022/11/15 05:52:35;;;;;;;134.32;66.78;;;8.80;99.90;;;;;;5090643;28;20047;-75
2022/11/15 05:55:02;;;;;;;128.18;64.68;;;8.80;99.90;;;;;;5088446;28;20035;-75
2022/11/15 05:57:29;;;;;;;136.85;72.82;;;8.90;99.90;;;;;;5084304;28;20449;-75
2022/11/15 05:59:55;;;;;;;183.00;68.13;;;8.90;99.90;;;;;;5070704;28;20043;-75
2022/11/15 06:02:20;;;;;;;135.27;64.75;;;9.00;99.90;;;;;;5086336;28;20441;-75
2022/11/15 06:04:46;;;;;;;132.40;66.28;;;9.00;99.90;;;;;;5092567;28;20086;-75
2022/11/15 06:07:12;;;;;;;144.07;65.43;;;9.00;99.90;;;;;;5092387;28;20293;-75
2022/11/15 06:09:38;;;;;;;125.10;63.30;;;9.00;99.90;;;;;;5091089;28;20055;-74
2022/11/15 06:12:04;;;;;;;116.38;63.33;;;9.10;99.90;;;;;;5091852;28;20052;-75
2022/11/15 06:14:29;;;;;;;130.05;63.60;;;9.10;99.90;;;;;;5089561;28;20059;-75
2022/11/15 06:16:55;;;;;;;121.13;61.08;;;9.20;99.90;;;;;;5091754;28;20416;-75
2022/11/15 06:19:21;;;;;;;110.00;56.38;;;9.20;99.90;;;;;;5091418;28;20040;-75
2022/11/15 06:21:46;;;;;;;116.82;59.35;;;9.30;99.90;;;;;;5090320;28;20489;-75
2022/11/15 06:24:12;;;;;;;119.03;61.15;;;9.30;99.90;;;;;;5083635;28;20047;-75
2022/11/15 06:26:37;;;;;;;106.65;57.13;;;9.40;99.90;;;;;;5080449;28;20052;-75
2022/11/15 06:29:04;;;;;;;127.10;59.72;;;9.40;99.90;;;;;;5082963;28;20042;-74
2022/11/15 06:31:30;;;;;;;102.18;54.92;;;9.50;99.90;;;;;;5100944;28;20040;-75
2022/11/15 06:33:56;;;;;;;99.00;53.75;;;9.50;99.90;;;;;;5080869;28;20050;-75
2022/11/15 06:36:21;;;;;;;99.90;53.53;;;9.60;99.90;;;;;;5080970;28;20051;-75
2022/11/15 06:38:47;;;;;;;97.55;52.85;;;9.60;99.90;;;;;;5101288;28;20512;-75
2022/11/15 06:41:14;;;;;;;102.53;55.33;;;9.70;99.90;;;;;;5081601;28;20051;-75
2022/11/15 06:43:40;;;;;;;101.95;53.13;;;9.70;99.90;;;;;;5100617;28;20131;-75
2022/11/15 06:46:06;;;;;;;96.30;53.88;;;9.70;99.90;;;;;;5090687;28;20130;-75
2022/11/15 06:48:34;;;;;;;102.65;51.78;;;9.70;99.90;;;;;;5089829;28;20836;-75
2022/11/15 06:51:01;;;;;;;100.05;50.35;;;9.70;99.90;;;;;;5100483;28;20050;-75
2022/11/15 06:53:27;;;;;;;98.80;50.47;;;9.80;99.90;;;;;;5101849;28;20158;-74
2022/11/15 06:55:53;;;;;;;108.45;53.90;;;9.80;99.90;;;;;;5098862;28;20047;-75
2022/11/15 06:58:20;;;;;;;110.20;52.80;;;9.90;99.90;;;;;;5082923;28;20046;-75
2022/11/15 07:00:46;;;;;;;97.87;50.30;;;9.90;99.90;;;;;;5099399;28;20527;-75
2022/11/15 07:03:12;;;;;;;82.72;49.25;;;9.90;99.90;;;;;;5097676;28;20337;-74
2022/11/15 07:05:37;;;;;;;90.82;52.25;;;9.90;99.90;;;;;;5083173;28;20052;-74
2022/11/15 07:08:03;;;;;;;88.18;49.25;;;9.90;99.90;;;;;;5068799;28;20926;-74
2022/11/15 07:10:30;;;;;;;90.85;50.92;;;10.00;99.90;;;;;;5103389;28;20090;-74
2022/11/15 07:12:56;;;;;;;102.03;48.95;;;10.00;99.90;;;;;;5088070;28;20047;-74
2022/11/15 07:15:24;;;;;;;90.45;50.67;;;10.00;99.90;;;;;;5100276;28;20027;-74
2022/11/15 07:17:50;;;;;;;;;;;10.00;99.90;;;;;;5086778;28;20047;-74
2022/11/15 07:20:16;;;;;;;78.05;47.05;;;10.00;99.90;;;;;;5069392;28;19919;-75
2022/11/15 07:22:42;;;;;;;99.35;49.72;;;10.00;99.90;;;;;;5084080;28;20060;-74
2022/11/15 07:25:09;;;;;;;86.53;44.20;;;10.10;99.90;;;;;;5105097;28;20119;-75
2022/11/15 07:27:34;;;;;;;80.05;45.70;;;10.10;99.90;;;;;;5087348;28;20101;-74
2022/11/15 07:30:01;;;;;;;78.55;45.58;;;10.20;99.90;;;;;;5086182;28;20508;-74
2022/11/15 07:32:27;;;;;;;82.88;49.30;;;10.20;99.90;;;;;;5087470;28;20454;-74
2022/11/15 07:34:52;;;;;;;75.53;46.65;;;10.20;99.90;;;;;;5086368;28;20112;-74
2022/11/15 07:37:18;;;;;;;86.82;46.05;;;10.20;99.90;;;;;;5087027;28;20092;-74
2022/11/15 07:39:44;;;;;;;83.10;46.47;;;10.20;99.90;;;;;;5084811;28;20400;-74
2022/11/15 07:44:54;;;;;;;78.90;43.05;;;10.20;99.90;;;;;;5084837;28;20059;-74
2022/11/15 07:47:20;;;;;;;69.70;42.00;;;10.20;99.90;;;;;;5086821;27;20375;-74
2022/11/15 07:49:48;;;;;;;80.97;47.22;;;10.20;99.90;;;;;;5085513;28;20045;-74
2022/11/15 07:52:13;;;;;;;85.30;46.53;;;10.30;99.90;;;;;;5097956;28;20124;-75
2022/11/15 07:54:39;;;;;;;82.35;45.70;;;10.30;99.90;;;;;;5100015;28;20891;-75
2022/11/15 07:57:06;;;;;;;84.32;47.88;;;10.30;99.90;;;;;;5062396;28;20040;-74
2022/11/15 07:59:34;;;;;;;75.63;42.83;;;10.30;99.90;;;;;;5082809;28;20575;-74
2022/11/15 08:02:01;;;;;;;79.43;44.70;;;10.30;99.90;;;;;;5084533;28;20047;-75
2022/11/15 08:04:27;;;;;;;77.65;44.97;;;10.30;99.90;;;;;;5085089;28;20040;-75
2022/11/15 08:06:53;;;;;;;85.03;45.67;;;10.30;99.90;;;;;;5085774;28;20096;-75
2022/11/15 08:09:18;;;;;;;73.22;42.17;;;10.40;99.90;;;;;;5104303;28;20071;-74
2022/11/15 08:11:44;;;;;;;78.50;42.55;;;10.40;99.90;;;;;;5104437;28;20428;-74
2022/11/15 08:14:09;;;;;;;79.18;41.70;;;10.50;99.90;;;;;;5082227;28;20067;-74
2022/11/15 08:16:35;;;;;;;71.47;41.30;;;10.40;99.90;;;;;;5103088;28;20054;-75
2022/11/15 08:19:01;;;;;;;66.65;39.72;;;10.50;99.90;;;;;;5085204;28;20563;-75
2022/11/15 08:21:26;;;;;;;77.38;42.08;;;10.50;99.90;;;;;;5084369;28;20558;-75
2022/11/15 08:23:52;;;;;;;62.50;39.50;;;10.50;99.90;;;;;;5079625;28;20343;-75
2022/11/15 08:26:17;;;;;;;70.65;43.33;;;10.60;99.90;;;;;;5082980;28;20059;-74
2022/11/15 08:28:43;;;;;;;69.45;41.97;;;10.60;99.90;;;;;;5082137;28;20040;-75
2022/11/15 08:31:17;;;;;;;70.25;41.92;;;10.60;99.90;;;;;;5082213;28;20052;-74
2022/11/15 08:33:43;;;;;;;68.32;38.58;;;10.60;99.90;;;;;;5082268;28;20083;-74
2022/11/15 08:36:14;;;;;;;69.25;39.33;;;10.70;99.90;;;;;;5081492;28;20113;-74
2022/11/15 08:38:40;;;;;;;66.05;41.42;;;10.80;99.90;;;;;;5081600;28;20094;-74
2022/11/15 08:41:06;;;;;;;61.53;39.08;;;10.80;99.90;;;;;;5083773;28;20459;-74
2022/11/15 08:43:32;;;;;;;64.15;38.15;;;10.90;99.90;;;;;;5079886;28;20055;-74
2022/11/15 08:45:58;;;;;;;69.95;40.05;;;11.00;99.90;;;;;;5086776;28;20043;-75
2022/11/15 08:48:24;;;;;;;67.03;42.08;;;11.00;99.90;;;;;;5085005;28;20075;-74
2022/11/15 08:50:54;;;;;;;68.05;41.72;;;11.00;99.90;;;;;;5088839;28;20074;-74
2022/11/15 08:53:20;;;;;;;69.47;40.85;;;11.10;99.90;;;;;;5065693;28;20400;-74
2022/11/15 08:55:46;;;;;;;66.88;39.15;;;11.10;99.90;;;;;;5086794;28;20043;-74
2022/11/15 08:58:12;;;;;;;61.47;39.75;;;11.10;99.90;;;;;;5060969;28;20071;-74
2022/11/15 09:00:37;;;;;;;58.80;37.97;;;11.20;99.90;;;;;;5085551;28;20044;-74
2022/11/15 09:03:08;;;;;;;59.45;39.70;;;11.20;99.90;;;;;;5088900;28;20040;-74
2022/11/15 09:05:37;;;;;;;82.20;43.70;;;11.30;99.90;;;;;;5086396;28;20055;-74
2022/11/15 09:08:03;;;;;;;62.60;40.33;;;11.20;99.90;;;;;;5089505;28;20079;-74
2022/11/15 09:10:28;;;;;;;67.10;38.58;;;11.20;99.90;;;;;;5089376;28;20072;-74
2022/11/15 09:12:56;;;;;;;66.22;39.55;;;11.20;99.90;;;;;;5073322;28;20074;-74
2022/11/15 09:15:22;;;;;;;59.55;39.45;;;11.30;99.90;;;;;;5092018;28;20520;-74
2022/11/15 09:17:47;;;;;;;67.30;40.75;;;11.30;99.90;;;;;;5089792;28;20060;-74
2022/11/15 09:20:13;;;;;;;64.55;38.80;;;11.30;99.90;;;;;;5087281;28;20404;-74
2022/11/15 09:22:39;;;;;;;65.80;40.63;;;11.30;99.90;;;;;;5099551;28;20098;-74
2022/11/15 09:25:05;;;;;;;61.85;39.05;;;11.30;99.90;;;;;;5093054;28;20047;-74
2022/11/15 09:27:31;;;;;;;71.28;39.75;;;11.30;99.90;;;;;;5093537;28;20093;-74
2022/11/15 09:29:56;;;;;;;78.60;40.47;;;11.30;99.90;;;;;;5093583;28;20044;-74
2022/11/15 09:32:25;;;;;;;63.90;39.47;;;11.40;99.90;;;;;;5093374;28;20399;-74
2022/11/15 09:34:50;;;;;;;;;;;11.40;99.90;;;;;;5109979;28;20050;-74
2022/11/15 09:37:16;;;;;;;63.25;41.33;;;11.40;99.90;;;;;;5107077;28;20377;-74
2022/11/15 09:39:42;;;;;;;64.80;41.58;;;11.40;99.90;;;;;;5086886;28;20044;-74
2022/11/15 09:42:13;;;;;;;75.10;46.38;;;11.40;99.90;;;;;;5110671;28;20035;-74
2022/11/15 09:44:52;;;;;;;66.07;42.80;;;11.50;99.90;;;;;;5090288;28;20066;-75
2022/11/15 09:47:42;;;;;;;86.03;46.22;;;11.50;99.90;;;;;;5110637;28;20134;-74
2022/11/15 09:50:32;;;;;;;65.82;42.45;;;11.50;99.90;;;;;;5062101;28;20055;-74
2022/11/15 09:52:57;;;;;;;73.63;43.75;;;11.50;99.90;;;;;;5074812;28;20040;-75
2022/11/15 09:55:39;;;;;;;66.90;43.08;;;11.50;99.90;;;;;;5090034;28;20052;-75
2022/11/15 09:58:33;;;;;;;68.97;43.17;;;11.50;99.90;;;;;;5106932;28;20054;-74
2022/11/15 10:01:04;;;;;;;68.00;42.80;;;11.50;99.90;;;;;;5086763;28;20040;-74
2022/11/15 10:03:35;;;;;;;72.53;44.30;;;11.50;99.90;;;;;;5102138;28;20050;-74
2022/11/15 10:06:04;;;;;;;69.63;43.90;;;11.50;99.90;;;;;;5085699;28;20104;-74
2022/11/15 10:08:50;;;;;;;72.50;43.53;;;11.50;99.90;;;;;;5086613;28;20107;-74
2022/11/15 10:11:22;;;;;;;67.93;42.60;;;11.50;99.90;;;;;;5103903;28;20103;-74
2022/11/15 10:13:50;;;;;;;76.95;43.67;;;11.60;99.90;;;;;;5087057;28;20075;-74
2022/11/15 10:16:27;;;;;;;69.82;43.22;;;11.60;99.90;;;;;;5086287;28;20039;-74
2022/11/15 10:18:53;;;;;;;72.80;44.83;;;11.50;99.90;;;;;;5088101;28;20500;-74
2022/11/15 10:22:05;;;;;;;70.40;43.17;;;11.50;99.90;;;;;;5071435;28;20051;-74
2022/11/15 10:24:38;;;;;;;76.20;46.72;;;11.50;99.90;;;;;;5053007;28;20153;-74
2022/11/15 10:27:16;;;;;;;65.38;40.70;;;11.50;99.90;;;;;;5086475;28;20075;-74
2022/11/15 10:29:42;;;;;;;;;;;11.50;99.90;;;;;;5101762;28;20048;-73
2022/11/15 10:32:10;;;;;;;61.63;39.38;;;11.50;99.90;;;;;;5103878;28;19931;-74
2022/11/15 10:34:36;;;;;;;77.45;45.00;;;11.40;99.90;;;;;;5087205;28;20043;-75
2022/11/15 10:37:02;;;;;;;68.07;41.97;;;11.40;99.90;;;;;;5106505;28;20044;-74
2022/11/15 10:39:28;;;;;;;71.38;44.40;;;11.40;99.90;;;;;;5091088;28;20051;-74
2022/11/15 10:41:54;;;;;;;67.25;41.88;;;11.40;99.90;;;;;;5108585;28;20044;-74
2022/11/15 10:44:31;;;;;;;65.47;38.53;;;11.50;99.90;;;;;;5089810;28;20055;-74
2022/11/15 10:46:56;;;;;;;63.33;40.75;;;11.50;99.90;;;;;;5085894;28;20058;-75
2022/11/15 10:49:28;;;;;;;60.15;38.67;;;11.50;99.90;;;;;;5107952;28;20400;-75
2022/11/15 10:52:16;;;;;;;60.80;40.70;;;11.50;99.90;;;;;;5091562;28;20044;-75
2022/11/15 10:55:02;;;;;;;54.42;37.63;;;11.60;99.90;;;;;;5090208;28;20557;-75
2022/11/15 10:57:39;;;;;;;60.03;37.25;;;11.60;99.90;;;;;;5088895;28;20048;-75
2022/11/15 11:00:25;;;;;;;53.17;36.88;;;11.60;99.90;;;;;;5072907;28;20801;-75
2022/11/15 11:03:01;;;;;;;56.45;37.45;;;11.70;99.90;;;;;;5087314;28;20046;-74
2022/11/15 11:05:31;;;;;;;52.25;37.47;;;11.70;99.90;;;;;;5083120;28;20467;-76
2022/11/15 11:08:01;;;;;;;50.40;35.92;;;11.80;99.90;;;;;;5090152;27;20412;-77
2022/11/15 11:10:27;;;;;;;48.28;33.35;;;11.80;99.90;;;;;;5072244;28;20036;-75
2022/11/15 11:12:53;;;;;;;43.33;30.70;;;11.90;99.90;;;;;;5101408;28;20036;-76
2022/11/15 11:15:19;;;;;;;56.72;33.40;;;11.90;99.90;;;;;;5107161;28;20475;-76
2022/11/15 11:18:04;;;;;;;50.97;33.88;;;11.90;99.90;;;;;;5089488;28;20096;-76
2022/11/15 11:20:41;;;;;;;52.72;30.17;;;12.00;99.90;;;;;;5079962;28;20126;-76
2022/11/15 11:23:36;;;;;;;41.55;26.45;;;12.00;99.90;;;;;;5084337;28;20048;-76
2022/11/15 11:26:40;;;;;;;40.90;28.58;;;12.10;99.90;;;;;;5087477;28;20055;-76
2022/11/15 11:29:31;;;;;;;49.38;30.27;;;12.10;99.90;;;;;;5080512;28;20493;-76
2022/11/15 11:32:26;;;;;;;47.17;23.90;;;12.20;99.90;;;;;;5086653;28;20154;-76
2022/11/15 11:35:21;;;;;;;31.25;21.52;;;12.20;99.90;;;;;;5029722;28;20053;-77
2022/11/15 11:38:37;;;;;;;35.00;20.60;;;12.20;99.90;;;;;;5085615;28;20036;-77
2022/11/15 11:41:50;;;;;;;30.20;19.15;;;12.30;99.90;;;;;;5047523;28;20052;-77
2022/11/15 11:44:34;;;;;;;26.42;16.20;;;12.40;99.90;;;;;;5086641;28;20046;-76
2022/11/15 11:47:01;;;;;;;27.75;16.83;;;12.40;99.90;;;;;;5084732;28;20063;-76
2022/11/15 11:49:39;;;;;;;28.48;14.35;;;12.50;99.90;;;;;;5083985;28;20072;-75
2022/11/15 11:52:32;;;;;;;17.23;12.40;;;12.40;99.90;;;;;;5071452;28;20095;-74
2022/11/15 11:55:05;;;;;;;13.07;9.73;;;12.50;99.90;;;;;;5086451;28;20606;-74
2022/11/15 11:57:53;;;;;;;21.05;11.57;;;12.40;99.90;;;;;;5087023;28;20108;-74
2022/11/15 12:00:24;;;;;;;18.75;11.82;;;12.40;99.90;;;;;;5082674;28;20048;-73
2022/11/15 12:03:24;;;;;;;15.43;11.27;;;12.40;99.90;;;;;;5068919;28;20144;-72
2022/11/15 12:06:28;;;;;;;16.63;10.85;;;12.40;99.90;;;;;;5082781;28;20044;-73
2022/11/15 12:09:00;;;;;;;23.52;12.35;;;12.40;99.90;;;;;;5086367;28;20052;-73
2022/11/15 12:11:41;;;;;;;19.70;13.88;;;12.40;99.90;;;;;;5086388;28;20047;-73
2022/11/15 12:14:19;;;;;;;25.38;13.35;;;12.40;99.90;;;;;;5087388;28;20044;-73
2022/11/15 12:16:45;;;;;;;16.98;11.88;;;12.40;99.90;;;;;;5086116;28;20067;-73
2022/11/15 12:19:10;;;;;;;20.40;14.40;;;12.30;99.90;;;;;;5086248;28;20492;-73
2022/11/15 12:21:36;;;;;;;16.45;12.18;;;12.30;99.90;;;;;;5087085;28;20105;-73
2022/11/15 12:24:12;;;;;;;21.20;11.50;;;12.20;99.90;;;;;;5106215;28;20047;-74
2022/11/15 12:27:06;;;;;;;20.15;12.35;;;12.20;99.90;;;;;;5078644;28;20052;-71
2022/11/15 12:29:35;;;;;;;16.95;11.38;;;12.20;99.90;;;;;;5046513;28;20554;-72
2022/11/15 12:32:03;;;;;;;15.38;11.43;;;12.20;99.90;;;;;;5107734;28;20047;-73
2022/11/15 12:34:37;;;;;;;13.15;10.95;;;12.20;99.90;;;;;;5089573;28;20408;-71
2022/11/15 12:37:38;;;;;;;25.27;12.05;;;12.20;99.90;;;;;;5105434;28;20407;-72
2022/11/15 12:40:13;;;;;;;17.58;9.27;;;12.30;99.90;;;;;;5101659;28;20121;-71
2022/11/15 12:42:56;;;;;;;14.73;9.45;;;12.40;99.90;;;;;;5103183;28;20054;-71
2022/11/15 12:45:29;;;;;;;16.42;10.98;;;12.40;99.90;;;;;;5089848;28;20047;-71
2022/11/15 12:48:17;;;;;;;21.50;10.30;;;12.50;99.90;;;;;;5090060;28;20576;-71
2022/11/15 12:50:54;;;;;;;10.77;8.65;;;12.60;99.90;;;;;;5068895;28;20040;-71
2022/11/15 12:53:23;;;;;;;14.13;9.77;;;12.60;99.90;;;;;;5099091;28;20040;-71
2022/11/15 12:56:16;;;;;;;16.65;9.05;;;12.60;99.90;;;;;;5105704;28;20053;-71
2022/11/15 12:58:58;;;;;;;16.15;8.40;;;12.70;99.90;;;;;;5105170;28;20048;-71
2022/11/15 13:01:35;;;;;;;15.13;8.48;;;12.70;99.90;;;;;;5106892;28;20039;-71
2022/11/15 13:04:19;;;;;;;13.80;6.70;;;12.80;99.90;;;;;;5085069;28;20424;-71
2022/11/15 13:06:51;;;;;;;11.30;7.60;;;12.80;99.90;;;;;;5071706;28;20045;-71
2022/11/15 13:09:31;;;;;;;11.45;6.38;;;12.90;99.90;;;;;;5107003;28;20039;-71
2022/11/15 13:12:26;;;;;;;13.40;6.82;;;12.90;99.90;;;;;;5105000;28;20400;-71